Terminal Aerodrome Forecast
Issued by NWS Twin Cities, MN

Home | Current Version | Previous Version | Graphics & Text | Print | Product List | Glossary On
Versions: 1 2 3 4 5 6 7 8 9 10 11 12 13 14 15 16 17 18 19
000
FTUS43 KMPX 181720
TAFSTC
TAF
KSTC 181720Z 1818/1918 10009G16KT P6SM FEW200
     FM190000 11011KT P6SM OVC100
     FM190600 10011KT 6SM -RA OVC040
     FM191000 12013G20KT 4SM -RA BR OVC020
     FM191400 24011G18KT P6SM -RA OVC015=

USA.gov is the U.S. government's official web portal to all federal, state and local government web resources and services.